Time;durP1;ratioP1;P1;durP2;ratioP2;P2;SDS_P1;SDS_P2;PMS_P1;PMS_P2;Temp;Humidity;BMP_temperature;BMP_pressure;BME280_temperature;BME280_humidity;BME280_pressure;Samples;Min_cycle;Max_cycle;Signal;HPM_P1;HPM_P2
2023/04/08 00:00:06;;;;;;;38.22;24.00;;;3.40;99.90;;;;;;5012901;28;20409;-84
2023/04/08 00:02:32;;;;;;;37.47;22.80;;;3.40;99.90;;;;;;5011573;28;20022;-83
2023/04/08 00:04:58;;;;;;;38.20;23.48;;;3.40;99.90;;;;;;5012493;28;20394;-81
2023/04/08 00:07:24;;;;;;;;;;;3.30;99.90;;;;;;5010871;28;20122;-83
2023/04/08 00:09:50;;;;;;;39.88;23.92;;;3.30;99.90;;;;;;5010881;28;19909;-83
2023/04/08 00:12:15;;;;;;;;;;;3.30;99.90;;;;;;5011185;28;20030;-84
2023/04/08 00:14:41;;;;;;;39.70;23.80;;;3.40;99.90;;;;;;5010994;28;19996;-83
2023/04/08 00:17:06;;;;;;;;;;;3.30;99.90;;;;;;5012072;28;20116;-83
2023/04/08 00:19:33;;;;;;;35.88;22.38;;;3.40;99.90;;;;;;5012448;28;19917;-84
2023/04/08 00:21:59;;;;;;;40.92;23.30;;;3.30;99.90;;;;;;5008825;28;20471;-83
2023/04/08 00:24:24;;;;;;;;;;;3.30;99.90;;;;;;5012638;28;20037;-82
2023/04/08 00:26:50;;;;;;;40.78;23.58;;;3.30;99.90;;;;;;5011356;28;20000;-83
2023/04/08 00:29:16;;;;;;;37.58;24.02;;;3.30;99.90;;;;;;5011238;28;20042;-83
2023/04/08 00:31:42;;;;;;;;;;;3.30;99.90;;;;;;5011014;28;20026;-84
2023/04/08 00:34:07;;;;;;;38.65;22.70;;;3.30;99.90;;;;;;5012515;28;19906;-83
2023/04/08 00:36:34;;;;;;;;;;;3.30;99.90;;;;;;5011786;28;20033;-83
2023/04/08 00:39:00;;;;;;;36.35;22.70;;;3.30;99.90;;;;;;5011250;28;19913;-84
2023/04/08 00:41:26;;;;;;;;;;;3.30;99.90;;;;;;5011877;28;20033;-84
2023/04/08 00:43:53;;;;;;;41.58;24.75;;;3.30;99.90;;;;;;5011229;28;20305;-83
2023/04/08 00:46:19;;;;;;;38.10;23.10;;;3.30;99.90;;;;;;5010991;28;20533;-84
2023/04/08 00:48:44;;;;;;;;;;;3.30;99.90;;;;;;5011914;28;20030;-84
2023/04/08 00:51:11;;;;;;;39.45;24.27;;;3.20;99.90;;;;;;5014669;28;19906;-85
2023/04/08 00:53:37;;;;;;;38.95;24.65;;;3.20;99.90;;;;;;5015048;28;20501;-85
2023/04/08 00:56:02;;;;;;;;;;;3.30;99.90;;;;;;5015391;28;20026;-84
2023/04/08 00:58:29;;;;;;;39.38;23.60;;;3.20;99.90;;;;;;5013761;28;19909;-86
2023/04/08 01:01:02;;;;;;;40.65;25.35;;;3.20;99.90;;;;;;5013598;28;20026;-82
2023/04/08 01:03:51;;;;;;;39.50;24.77;;;3.20;99.90;;;;;;5013712;28;20049;-83
2023/04/08 01:06:35;;;;;;;37.58;24.70;;;3.40;99.90;;;;;;5013933;28;20501;-83
2023/04/08 01:09:04;;;;;;;40.38;23.90;;;3.40;99.90;;;;;;5013907;28;20045;-82
2023/04/08 01:11:33;;;;;;;35.42;24.00;;;3.40;99.90;;;;;;5013680;28;20494;-83
2023/04/08 01:14:05;;;;;;;41.08;26.02;;;3.40;99.90;;;;;;5013471;28;20034;-83
2023/04/08 01:16:31;;;;;;;37.75;23.20;;;3.40;99.90;;;;;;5013304;28;20511;-83
2023/04/08 01:18:57;;;;;;;;;;;3.40;99.90;;;;;;5013201;28;20038;-83
2023/04/08 01:21:23;;;;;;;39.83;25.27;;;3.40;99.90;;;;;;5012674;28;19915;-83
2023/04/08 01:24:08;;;;;;;41.70;25.45;;;3.40;99.90;;;;;;5011035;28;20017;-82
2023/04/08 01:26:34;;;;;;;39.17;24.48;;;3.40;99.90;;;;;;5013052;28;20121;-82
2023/04/08 01:29:02;;;;;;;39.08;25.23;;;3.30;99.90;;;;;;5013309;28;20519;-83
2023/04/08 01:31:29;;;;;;;39.17;24.02;;;3.30;99.90;;;;;;5013156;28;20395;-83
2023/04/08 01:33:56;;;;;;;38.30;25.48;;;3.30;99.90;;;;;;5011680;28;20438;-82
2023/04/08 01:36:25;;;;;;;44.67;28.13;;;3.30;99.90;;;;;;5013014;28;20030;-81
2023/04/08 01:38:50;;;;;;;37.80;24.40;;;3.30;99.90;;;;;;5012814;28;20044;-82
2023/04/08 01:41:17;;;;;;;;;;;3.40;99.90;;;;;;5013267;28;20022;-83
2023/04/08 01:43:43;;;;;;;47.10;26.45;;;3.40;99.90;;;;;;5014532;28;20405;-82
2023/04/08 01:46:11;;;;;;;41.20;25.35;;;3.40;99.90;;;;;;5012525;28;20445;-83
2023/04/08 01:48:39;;;;;;;40.85;25.65;;;3.40;99.90;;;;;;5011361;28;20022;-83
2023/04/08 01:51:05;;;;;;;41.03;24.00;;;3.40;99.90;;;;;;5011252;28;20025;-82
2023/04/08 01:53:32;;;;;;;40.67;25.33;;;3.50;99.90;;;;;;5010997;28;20088;-82
2023/04/08 01:56:08;;;;;;;44.80;26.63;;;3.40;99.90;;;;;;5011233;28;20472;-81
2023/04/08 01:58:41;;;;;;;40.07;24.73;;;3.40;99.90;;;;;;5011591;28;20034;-82
2023/04/08 02:01:11;;;;;;;40.60;24.15;;;3.40;99.90;;;;;;5010220;28;20029;-83
2023/04/08 02:03:37;;;;;;;38.42;23.70;;;3.40;99.90;;;;;;5012425;28;20034;-83
2023/04/08 02:06:04;;;;;;;42.08;25.85;;;3.40;99.90;;;;;;5012592;28;20494;-83
2023/04/08 02:08:29;;;;;;;44.67;26.65;;;3.40;99.90;;;;;;5012111;28;20212;-82
2023/04/08 02:10:55;;;;;;;;;;;3.30;99.90;;;;;;5011519;28;20121;-82
2023/04/08 02:13:20;;;;;;;40.05;23.88;;;3.30;99.90;;;;;;5012450;28;19907;-83
2023/04/08 02:15:50;;;;;;;;;;;3.30;99.90;;;;;;5013239;28;20037;-83
2023/04/08 02:18:26;;;;;;;42.80;27.02;;;3.40;99.90;;;;;;5013118;28;19913;-82
2023/04/08 02:21:10;;;;;;;44.55;28.60;;;3.30;99.90;;;;;;5011091;28;20030;-82
2023/04/08 02:23:38;;;;;;;43.25;26.98;;;3.30;99.90;;;;;;5012389;28;20099;-82
2023/04/08 02:26:13;;;;;;;39.25;25.52;;;3.40;99.90;;;;;;5011646;28;20018;-83
2023/04/08 02:28:40;;;;;;;44.10;26.77;;;3.30;99.90;;;;;;5012176;28;20040;-82
2023/04/08 02:31:12;;;;;;;40.00;26.20;;;3.30;99.90;;;;;;5012036;28;20113;-82
2023/04/08 02:33:39;;;;;;;39.97;25.77;;;3.30;99.90;;;;;;5012121;28;20034;-83
2023/04/08 02:36:06;;;;;;;42.08;27.15;;;3.30;99.90;;;;;;5012940;28;20030;-82
2023/04/08 02:38:31;;;;;;;38.30;24.77;;;3.30;99.90;;;;;;5011820;28;20026;-83
2023/04/08 02:40:57;;;;;;;;;;;3.40;99.90;;;;;;5011968;28;20037;-83
2023/04/08 02:43:31;;;;;;;39.33;23.90;;;3.40;99.90;;;;;;5012033;28;19909;-83
2023/04/08 02:46:02;;;;;;;40.55;25.00;;;3.30;99.90;;;;;;5011642;28;20037;-83
2023/04/08 02:48:29;;;;;;;36.40;24.75;;;3.30;99.90;;;;;;5011847;28;20064;-83
2023/04/08 02:50:55;;;;;;;37.10;23.95;;;3.30;99.90;;;;;;5011529;28;20030;-82
2023/04/08 02:53:21;;;;;;;;;;;3.30;99.90;;;;;;5012377;28;20045;-83
2023/04/08 02:55:46;;;;;;;35.95;23.00;;;3.30;99.90;;;;;;5011840;28;19912;-83
2023/04/08 02:58:12;;;;;;;;;;;3.30;99.90;;;;;;5011157;28;20042;-82
2023/04/08 03:00:38;;;;;;;36.35;23.73;;;3.30;99.90;;;;;;5012086;28;19913;-83
2023/04/08 03:03:05;;;;;;;35.38;23.40;;;3.20;99.90;;;;;;5010702;28;20037;-83
2023/04/08 03:05:31;;;;;;;35.70;24.38;;;3.30;99.90;;;;;;5012843;28;20403;-83
2023/04/08 03:07:57;;;;;;;36.85;24.80;;;3.20;99.90;;;;;;5012039;28;20065;-83
2023/04/08 03:10:22;;;;;;;;;;;3.30;99.90;;;;;;5011768;28;20034;-82
2023/04/08 03:12:48;;;;;;;32.03;21.83;;;3.30;99.90;;;;;;5011493;28;19913;-82
2023/04/08 03:15:13;;;;;;;;;;;3.30;99.90;;;;;;5011962;28;20387;-83
2023/04/08 03:17:39;;;;;;;36.92;23.15;;;3.20;99.90;;;;;;5011266;28;19906;-83
2023/04/08 03:20:05;;;;;;;;;;;3.30;99.90;;;;;;5011425;28;20038;-83
2023/04/08 03:22:32;;;;;;;36.95;22.80;;;3.20;99.90;;;;;;5011457;28;19931;-83
2023/04/08 03:24:58;;;;;;;36.65;24.13;;;3.10;99.90;;;;;;5011423;28;20418;-83
2023/04/08 03:27:24;;;;;;;;;;;3.20;99.90;;;;;;5011690;28;20030;-83
2023/04/08 03:29:50;;;;;;;37.97;23.52;;;3.20;99.90;;;;;;5011620;28;20348;-83
2023/04/08 03:32:15;;;;;;;;;;;3.20;99.90;;;;;;5011892;28;20026;-83
2023/04/08 03:34:41;;;;;;;41.08;22.13;;;3.20;99.90;;;;;;5011917;28;19909;-82
2023/04/08 03:37:07;;;;;;;;;;;3.20;99.90;;;;;;5012013;28;20026;-83
2023/04/08 03:39:34;;;;;;;34.92;21.83;;;3.20;99.90;;;;;;5010923;28;19917;-83
2023/04/08 03:42:00;;;;;;;40.17;24.67;;;3.20;99.90;;;;;;5009167;28;20021;-82
2023/04/08 03:44:26;;;;;;;;;;;3.20;99.90;;;;;;5011611;28;20071;-83
2023/04/08 03:46:51;;;;;;;32.47;21.40;;;3.20;99.90;;;;;;5012449;28;19909;-83
2023/04/08 03:49:17;;;;;;;;;;;3.10;99.90;;;;;;5011278;28;20028;-83
2023/04/08 03:51:43;;;;;;;31.80;21.88;;;3.10;99.90;;;;;;5011589;28;20387;-82
2023/04/08 03:54:08;;;;;;;;;;;3.10;99.90;;;;;;5012154;28;20026;-83
2023/04/08 03:56:34;;;;;;;37.42;25.02;;;3.00;99.90;;;;;;5010659;28;19905;-83
2023/04/08 03:58:59;;;;;;;;;;;2.90;99.90;;;;;;5011011;28;20149;-83
2023/04/08 04:01:25;;;;;;;31.95;20.63;;;2.90;99.90;;;;;;5008365;28;19909;-83
2023/04/08 04:03:50;;;;;;;;;;;2.90;99.90;;;;;;5011714;28;20402;-83
2023/04/08 04:06:16;;;;;;;33.10;20.55;;;3.00;99.90;;;;;;5010875;28;19913;-84
2023/04/08 04:08:42;;;;;;;;;;;3.00;99.90;;;;;;5010917;28;20462;-83
2023/04/08 04:11:07;;;;;;;30.88;18.83;;;3.10;99.90;;;;;;5010690;28;20359;-83
2023/04/08 04:13:33;;;;;;;;;;;3.10;99.90;;;;;;5011004;28;20026;-83
2023/04/08 04:15:58;;;;;;;32.08;19.80;;;3.00;99.90;;;;;;5010799;28;19906;-83
2023/04/08 04:18:24;;;;;;;;;;;3.00;99.90;;;;;;5010995;28;20488;-83
2023/04/08 04:20:50;;;;;;;27.90;17.73;;;3.00;99.90;;;;;;5010885;28;19928;-83
2023/04/08 04:23:15;;;;;;;;;;;3.00;99.90;;;;;;5011134;28;20026;-83
2023/04/08 04:25:41;;;;;;;23.50;16.15;;;3.10;99.90;;;;;;5013380;28;19912;-84
2023/04/08 04:28:08;;;;;;;;;;;3.20;99.90;;;;;;5014914;28;20030;-84
2023/04/08 04:30:38;;;;;;;;;;;3.10;99.90;;;;;;5014898;28;19909;-84
2023/04/08 04:33:04;;;;;;;24.65;16.77;;;3.10;99.90;;;;;;5015816;28;19910;-83
2023/04/08 04:35:30;;;;;;;26.05;18.02;;;3.10;99.90;;;;;;5014466;28;20394;-83
2023/04/08 04:37:55;;;;;;;;;;;3.10;99.90;;;;;;5015362;28;20104;-83
2023/04/08 04:40:21;;;;;;;24.63;15.80;;;3.10;99.90;;;;;;5013992;28;19968;-83
2023/04/08 04:42:46;;;;;;;;;;;3.20;99.90;;;;;;5015330;28;20034;-83
2023/04/08 04:45:13;;;;;;;21.02;14.63;;;3.30;99.90;;;;;;5014002;28;20004;-83
2023/04/08 04:47:38;;;;;;;;;;;3.30;99.90;;;;;;5014400;28;20414;-83
2023/04/08 04:50:05;;;;;;;18.67;13.30;;;3.30;99.90;;;;;;5014868;28;19911;-82
2023/04/08 04:52:30;;;;;;;20.60;13.75;;;3.30;99.90;;;;;;5013312;28;20030;-83
2023/04/08 04:54:56;;;;;;;;;;;3.30;99.90;;;;;;5013374;28;20116;-83
2023/04/08 04:57:22;;;;;;;19.80;13.45;;;3.30;99.90;;;;;;5013460;28;19951;-83
2023/04/08 04:59:47;;;;;;;;;;;3.30;99.90;;;;;;5013871;28;20045;-83
2023/04/08 05:02:13;;;;;;;22.30;14.25;;;3.40;99.90;;;;;;5013282;28;19916;-83
2023/04/08 05:04:38;;;;;;;;;;;3.50;99.90;;;;;;5013867;28;20029;-82
2023/04/08 05:07:04;;;;;;;20.92;13.57;;;3.60;99.90;;;;;;5013407;28;19932;-83
2023/04/08 05:09:30;;;;;;;;;;;3.50;99.90;;;;;;5013728;28;20445;-82
2023/04/08 05:11:56;;;;;;;24.08;16.35;;;3.50;99.90;;;;;;5013404;28;19912;-83
2023/04/08 05:14:21;;;;;;;;;;;3.50;99.90;;;;;;5013820;28;20022;-83
2023/04/08 05:16:47;;;;;;;22.27;14.70;;;3.60;99.90;;;;;;5013678;28;19905;-83
2023/04/08 05:19:12;;;;;;;;;;;3.50;99.90;;;;;;5013575;28;20048;-84
2023/04/08 05:21:38;;;;;;;23.02;15.50;;;3.50;99.90;;;;;;5013522;28;20033;-84
2023/04/08 05:24:04;;;;;;;;;;;3.50;99.90;;;;;;5012253;28;20391;-83
2023/04/08 05:26:29;;;;;;;21.08;14.25;;;3.50;99.90;;;;;;5013303;28;20336;-84
2023/04/08 05:28:55;;;;;;;;;;;3.50;99.90;;;;;;5013278;28;20026;-84
2023/04/08 05:31:21;;;;;;;20.98;13.52;;;3.50;99.90;;;;;;5013476;28;20374;-84
2023/04/08 05:33:46;;;;;;;;;;;3.60;99.90;;;;;;5015128;28;20391;-83
2023/04/08 05:36:13;;;;;;;23.15;14.90;;;3.60;99.90;;;;;;5012928;28;20055;-83
2023/04/08 05:38:41;;;;;;;21.50;14.38;;;3.70;99.90;;;;;;5013611;28;20577;-84
2023/04/08 05:41:07;;;;;;;23.98;15.38;;;3.70;99.90;;;;;;5012572;28;20021;-83
2023/04/08 05:43:32;;;;;;;;;;;3.80;99.90;;;;;;5014037;28;20037;-84
2023/04/08 05:45:58;;;;;;;21.20;14.80;;;3.80;99.90;;;;;;5012881;28;19913;-83
2023/04/08 05:48:24;;;;;;;;;;;3.90;99.90;;;;;;5014600;28;20026;-84
2023/04/08 05:50:49;;;;;;;22.50;14.90;;;3.90;99.90;;;;;;5010832;28;19915;-84
2023/04/08 05:53:15;;;;;;;;;;;4.00;99.90;;;;;;5012841;28;20112;-83
2023/04/08 05:55:40;;;;;;;21.50;15.32;;;4.00;99.90;;;;;;5012720;28;19909;-83
2023/04/08 05:58:06;;;;;;;;;;;4.00;99.90;;;;;;5014255;28;20439;-83
2023/04/08 06:00:32;;;;;;;22.63;15.70;;;4.10;99.90;;;;;;5012485;28;20362;-84
2023/04/08 06:02:57;;;;;;;;;;;4.10;99.90;;;;;;5012820;28;20026;-83
2023/04/08 06:05:23;;;;;;;25.15;16.60;;;4.10;99.90;;;;;;5013509;28;19905;-83
2023/04/08 06:07:49;;;;;;;;;;;4.20;99.90;;;;;;5012724;28;20088;-84
2023/04/08 06:10:15;;;;;;;30.52;19.40;;;4.20;99.90;;;;;;5011772;28;19905;-83
2023/04/08 06:12:40;;;;;;;;;;;4.20;99.90;;;;;;5010730;28;20053;-84
2023/04/08 06:15:07;;;;;;;34.63;21.08;;;4.20;99.90;;;;;;5012592;28;19905;-82
2023/04/08 06:17:36;;;;;;;39.17;24.73;;;4.20;99.90;;;;;;5011798;28;20087;-83
2023/04/08 06:20:02;;;;;;;38.80;22.42;;;4.20;99.90;;;;;;5011594;28;20514;-81
2023/04/08 06:22:28;;;;;;;33.78;20.00;;;4.30;99.90;;;;;;5012392;28;20076;-82
2023/04/08 06:24:54;;;;;;;;;;;4.30;99.90;;;;;;5012378;28;20124;-81
2023/04/08 06:27:19;;;;;;;22.92;15.77;;;4.30;99.90;;;;;;5012045;28;19916;-82
2023/04/08 06:29:46;;;;;;;;;;;4.30;99.90;;;;;;5012248;28;20026;-84
2023/04/08 06:32:12;;;;;;;21.10;14.38;;;4.40;99.90;;;;;;5012017;28;20014;-82
2023/04/08 06:34:38;;;;;;;18.98;12.88;;;4.30;99.90;;;;;;5012492;28;20030;-84
2023/04/08 06:37:04;;;;;;;;;;;4.40;99.90;;;;;;5012648;28;20493;-81
2023/04/08 06:39:30;;;;;;;17.45;12.07;;;4.40;99.90;;;;;;5013103;28;20008;-82
2023/04/08 06:41:57;;;;;;;;;;;4.40;99.90;;;;;;5013999;28;20072;-82
2023/04/08 06:44:22;;;;;;;28.35;17.08;;;4.40;99.90;;;;;;5012740;28;19905;-84
2023/04/08 06:46:48;;;;;;;;;;;4.40;99.90;;;;;;5012007;28;20034;-84
2023/04/08 06:49:14;;;;;;;20.67;14.73;;;4.40;99.90;;;;;;5011724;28;19953;-83
2023/04/08 06:51:41;;;;;;;22.13;14.88;;;4.40;99.90;;;;;;5015136;28;20025;-84
2023/04/08 06:54:08;;;;;;;20.83;15.45;;;4.50;99.90;;;;;;5013918;28;20545;-84
2023/04/08 06:56:35;;;;;;;26.73;16.65;;;4.50;99.90;;;;;;5011961;28;20442;-84
2023/04/08 06:59:02;;;;;;;24.15;16.83;;;4.50;99.90;;;;;;5011768;28;20029;-83
2023/04/08 07:01:27;;;;;;;22.55;16.85;;;4.50;99.90;;;;;;5011845;28;20120;-84
2023/04/08 07:03:53;;;;;;;;;;;4.50;99.90;;;;;;5011991;28;20117;-83
2023/04/08 07:06:18;;;;;;;24.67;18.52;;;4.60;99.90;;;;;;5011562;28;20374;-84
2023/04/08 07:08:44;;;;;;;;;;;4.80;99.90;;;;;;5012629;28;20048;-82
2023/04/08 07:11:10;;;;;;;18.38;13.15;;;4.70;99.90;;;;;;5011617;28;19960;-83
2023/04/08 07:13:35;;;;;;;;;;;4.80;99.90;;;;;;5011662;28;20462;-84
2023/04/08 07:16:01;;;;;;;19.48;13.25;;;4.80;99.90;;;;;;5011236;28;19935;-83
2023/04/08 07:18:26;;;;;;;;;;;4.80;99.90;;;;;;5011986;28;20034;-84
2023/04/08 07:20:52;;;;;;;22.08;14.48;;;4.80;99.90;;;;;;5011217;28;20547;-84
2023/04/08 07:23:19;;;;;;;26.48;15.80;;;4.70;99.90;;;;;;5011218;28;20497;-83
2023/04/08 07:25:45;;;;;;;21.42;14.38;;;4.70;99.90;;;;;;5012590;28;20022;-83
2023/04/08 07:28:11;;;;;;;20.65;14.55;;;4.70;99.90;;;;;;5011311;28;20026;-84
2023/04/08 07:30:37;;;;;;;;;;;4.80;99.90;;;;;;5011307;28;20483;-83
2023/04/08 07:33:02;;;;;;;19.05;12.30;;;4.80;99.90;;;;;;5011601;28;20437;-85
2023/04/08 07:35:28;;;;;;;;;;;4.80;99.90;;;;;;5010216;28;20033;-84
2023/04/08 07:37:54;;;;;;;21.80;15.70;;;4.80;99.90;;;;;;5011285;28;20016;-84
2023/04/08 07:40:19;;;;;;;;;;;4.80;99.90;;;;;;5010065;28;20061;-83
2023/04/08 07:42:45;;;;;;;23.42;13.55;;;4.80;99.90;;;;;;5009836;28;19906;-83
2023/04/08 07:45:11;;;;;;;;;;;4.80;99.90;;;;;;5011567;28;20034;-84
2023/04/08 07:47:36;;;;;;;19.58;12.02;;;4.90;99.90;;;;;;5011202;28;19964;-83
2023/04/08 07:50:02;;;;;;;;;;;4.90;99.90;;;;;;5011312;28;20029;-84
2023/04/08 07:52:30;;;;;;;25.48;17.05;;;4.90;99.90;;;;;;5011161;28;19967;-84
2023/04/08 07:54:55;;;;;;;22.25;15.90;;;5.00;99.90;;;;;;5011178;28;20044;-85
2023/04/08 07:57:21;;;;;;;;;;;4.90;99.90;;;;;;5011497;28;20022;-83
2023/04/08 07:59:46;;;;;;;28.13;17.45;;;4.90;99.90;;;;;;5011582;28;19948;-84
2023/04/08 08:02:12;;;;;;;;;;;4.90;99.90;;;;;;5016086;28;20109;-83
2023/04/08 08:04:38;;;;;;;17.75;12.38;;;4.90;99.90;;;;;;5015341;28;19945;-84
2023/04/08 08:07:03;;;;;;;;;;;5.00;99.90;;;;;;5016511;28;20042;-84
2023/04/08 08:09:29;;;;;;;17.35;11.73;;;5.10;99.90;;;;;;5015260;28;20585;-84
2023/04/08 08:11:55;;;;;;;;;;;5.20;99.90;;;;;;5015430;28;20482;-83
2023/04/08 08:14:20;;;;;;;17.85;11.98;;;5.30;99.90;;;;;;5015848;28;19955;-84
2023/04/08 08:16:47;;;;;;;;;;;5.40;99.90;;;;;;5015409;28;20075;-84
2023/04/08 08:19:13;;;;;;;16.40;10.70;;;5.60;99.90;;;;;;5014869;28;20386;-84
2023/04/08 08:21:39;;;;;;;14.57;9.57;;;5.80;99.90;;;;;;5014088;28;20076;-84
2023/04/08 08:24:05;;;;;;;;;;;5.80;99.90;;;;;;5012757;28;20492;-84
2023/04/08 08:26:31;;;;;;;12.77;8.05;;;6.00;99.90;;;;;;5014710;28;19928;-83
2023/04/08 08:28:56;;;;;;;;;;;6.30;99.90;;;;;;5014984;28;20108;-84
2023/04/08 08:31:22;;;;;;;12.75;8.55;;;6.30;99.90;;;;;;5014543;28;19929;-84
2023/04/08 08:33:47;;;;;;;;;;;6.40;99.90;;;;;;5016106;28;20021;-83
2023/04/08 08:36:13;;;;;;;9.38;6.82;;;6.40;99.90;;;;;;5015511;28;19913;-83
2023/04/08 08:38:39;;;;;;;;;;;6.60;99.90;;;;;;5014897;28;20037;-84
2023/04/08 08:41:05;;;;;;;9.18;7.28;;;6.70;99.90;;;;;;5014616;28;19913;-84
2023/04/08 08:43:32;;;;;;;;;;;6.60;99.90;;;;;;5014834;28;20487;-84
2023/04/08 08:45:58;;;;;;;9.40;6.60;;;6.70;99.90;;;;;;5014088;28;20365;-84
2023/04/08 08:48:24;;;;;;;9.85;6.65;;;6.70;99.90;;;;;;5014080;28;20037;-83
2023/04/08 08:50:50;;;;;;;9.57;6.40;;;6.70;99.90;;;;;;5014180;28;20434;-84
2023/04/08 08:53:15;;;;;;;;;;;6.60;99.90;;;;;;5014182;28;20080;-82
2023/04/08 08:55:41;;;;;;;10.35;6.95;;;6.60;99.90;;;;;;5013762;28;19960;-84
2023/04/08 08:58:07;;;;;;;;;;;6.70;99.90;;;;;;5013693;28;20026;-84
2023/04/08 09:00:35;;;;;;;12.25;9.57;;;6.70;99.90;;;;;;5013960;28;20283;-84
2023/04/08 09:03:26;;;;;;;12.82;9.88;;;6.50;99.90;;;;;;5013809;28;20456;-84
2023/04/08 09:05:56;;;;;;;11.90;7.80;;;6.60;99.90;;;;;;5012979;28;20029;-84
2023/04/08 09:08:30;;;;;;;9.65;7.05;;;6.80;99.90;;;;;;5013134;28;20717;-84
2023/04/08 09:11:10;;;;;;;10.57;7.25;;;6.90;99.90;;;;;;5013303;28;20398;-83
2023/04/08 09:13:36;;;;;;;9.57;7.28;;;6.90;99.90;;;;;;5014946;28;20449;-83
2023/04/08 09:16:02;;;;;;;;;;;6.90;99.90;;;;;;5015913;28;20022;-84
2023/04/08 09:18:30;;;;;;;10.63;7.57;;;6.90;99.90;;;;;;5014167;28;20289;-84
2023/04/08 09:20:56;;;;;;;10.00;7.50;;;7.00;99.90;;;;;;5013049;28;20510;-83
2023/04/08 09:23:21;;;;;;;;;;;7.10;99.90;;;;;;5013256;28;20116;-83
2023/04/08 09:25:47;;;;;;;10.90;7.60;;;6.90;99.90;;;;;;5012790;28;19912;-84
2023/04/08 09:28:20;;;;;;;;;;;6.90;99.90;;;;;;5012646;28;20037;-85
2023/04/08 09:30:46;;;;;;;12.50;9.70;;;6.90;99.90;;;;;;5011474;28;20389;-84
2023/04/08 09:33:12;;;;;;;12.98;9.48;;;6.80;99.90;;;;;;5012984;28;20104;-84
2023/04/08 09:35:38;;;;;;;;;;;7.00;99.90;;;;;;5016700;28;20042;-83
2023/04/08 09:38:04;;;;;;;20.50;13.98;;;6.80;99.90;;;;;;5012904;28;19924;-83
2023/04/08 09:40:35;;;;;;;;;;;6.90;99.90;;;;;;5014191;28;20537;-84
2023/04/08 09:43:05;;;;;;;95.03;42.42;;;6.70;99.90;;;;;;5013067;28;19932;-84
2023/04/08 09:45:35;;;;;;;51.85;29.42;;;6.60;99.90;;;;;;5013639;28;20026;-84
2023/04/08 09:48:11;;;;;;;38.60;23.42;;;6.60;99.90;;;;;;5013274;28;20461;-84
2023/04/08 09:50:46;;;;;;;31.58;21.17;;;6.50;99.90;;;;;;5013383;28;20029;-84
2023/04/08 09:53:35;;;;;;;20.85;15.00;;;6.50;99.90;;;;;;5013541;28;20042;-84
2023/04/08 09:56:07;;;;;;;25.08;13.95;;;6.60;99.90;;;;;;5013141;28;20026;-84
2023/04/08 09:58:51;;;;;;;15.88;11.15;;;6.60;99.90;;;;;;5012822;28;20038;-85
2023/04/08 10:01:21;;;;;;;13.48;9.63;;;6.60;99.90;;;;;;5012680;28;20057;-84
2023/04/08 10:03:54;;;;;;;13.07;10.18;;;6.60;99.90;;;;;;5013539;28;20390;-84
2023/04/08 10:06:21;;;;;;;12.20;9.10;;;6.40;99.90;;;;;;5013274;28;20053;-84
2023/04/08 10:08:47;;;;;;;12.05;9.07;;;6.20;99.90;;;;;;5013768;28;20050;-84
2023/04/08 10:11:15;;;;;;;;;;;6.10;99.90;;;;;;5012786;28;20022;-83
2023/04/08 10:13:41;;;;;;;27.50;15.63;;;6.10;99.90;;;;;;5012269;28;19906;-85
2023/04/08 10:16:24;;;;;;;;;;;6.30;99.90;;;;;;5014980;28;20080;-84
2023/04/08 10:18:54;;;;;;;33.78;17.02;;;6.50;99.90;;;;;;5012214;28;19929;-84
2023/04/08 10:21:46;;;;;;;31.20;17.17;;;6.80;99.90;;;;;;5012011;28;20022;-83
2023/04/08 10:24:12;;;;;;;19.48;12.05;;;7.10;99.90;;;;;;5012027;28;20033;-84
2023/04/08 10:26:39;;;;;;;;;;;7.30;99.90;;;;;;5012924;28;20026;-84
2023/04/08 10:29:17;;;;;;;16.23;11.02;;;7.50;99.90;;;;;;5012346;28;19996;-84
2023/04/08 10:31:47;;;;;;;14.27;10.25;;;7.60;99.90;;;;;;5013071;28;20514;-83
2023/04/08 10:34:17;;;;;;;11.07;8.25;;;7.50;99.90;;;;;;5009995;28;20034;-84
2023/04/08 10:36:47;;;;;;;10.90;7.55;;;7.50;99.90;;;;;;5010564;28;20026;-83
2023/04/08 10:39:17;;;;;;;13.70;9.02;;;7.50;99.90;;;;;;5012385;28;20049;-84
2023/04/08 10:41:46;;;;;;;16.63;10.35;;;7.40;99.90;;;;;;5011990;28;20025;-84
2023/04/08 10:44:20;;;;;;;16.35;11.80;;;7.40;99.90;;;;;;5013301;28;20236;-84
2023/04/08 10:46:47;;;;;;;12.05;9.13;;;7.30;99.90;;;;;;5011843;28;20152;-84
2023/04/08 10:49:14;;;;;;;31.00;21.23;;;7.30;99.90;;;;;;5012276;28;20068;-84
2023/04/08 10:51:41;;;;;;;15.68;9.63;;;7.00;99.90;;;;;;5012647;28;20084;-84
2023/04/08 10:54:08;;;;;;;14.90;10.43;;;6.90;99.90;;;;;;5010527;28;20018;-84
2023/04/08 10:56:55;;;;;;;14.80;9.35;;;6.90;99.90;;;;;;5012217;28;20048;-84
2023/04/08 10:59:31;;;;;;;9.00;7.20;;;6.90;99.90;;;;;;5012065;28;20506;-84
2023/04/08 11:01:58;;;;;;;;;;;6.90;99.90;;;;;;5012237;28;20483;-84
2023/04/08 11:04:24;;;;;;;9.68;5.15;;;6.80;99.90;;;;;;5011733;28;19917;-82
2023/04/08 11:06:50;;;;;;;;;;;7.00;99.90;;;;;;5011626;28;20034;-83
2023/04/08 11:09:16;;;;;;;10.77;8.10;;;7.00;99.90;;;;;;5011582;28;20294;-84
2023/04/08 11:11:45;;;;;;;8.45;5.80;;;7.00;99.90;;;;;;5011643;28;20054;-84
2023/04/08 11:14:12;;;;;;;8.40;6.32;;;7.20;99.90;;;;;;5011736;28;20033;-84
2023/04/08 11:16:38;;;;;;;9.07;6.55;;;7.30;99.90;;;;;;5010792;28;20183;-85
2023/04/08 11:19:05;;;;;;;9.32;6.13;;;7.40;99.90;;;;;;5009455;28;20107;-84
2023/04/08 11:21:34;;;;;;;9.88;6.93;;;7.40;99.90;;;;;;5011401;28;20048;-83
2023/04/08 11:24:00;;;;;;;12.32;8.80;;;7.40;99.90;;;;;;5011343;28;20026;-84
2023/04/08 11:26:26;;;;;;;;;;;7.30;99.90;;;;;;5013152;28;20072;-84
2023/04/08 11:28:52;;;;;;;10.75;6.78;;;7.30;99.90;;;;;;5011156;28;19916;-84
2023/04/08 11:31:19;;;;;;;7.70;6.20;;;7.50;99.90;;;;;;5011268;28;20112;-84
2023/04/08 11:33:47;;;;;;;8.18;6.68;;;7.50;99.90;;;;;;5011124;28;20387;-83
2023/04/08 11:36:13;;;;;;;8.57;6.85;;;7.40;99.90;;;;;;5010948;28;20060;-83
2023/04/08 11:38:40;;;;;;;;;;;7.30;99.90;;;;;;5012124;28;20080;-84
2023/04/08 11:41:06;;;;;;;17.13;13.05;;;7.30;99.90;;;;;;5011222;28;19905;-84
2023/04/08 11:43:31;;;;;;;;;;;7.30;99.90;;;;;;5011062;28;20421;-83
2023/04/08 11:45:57;;;;;;;13.32;9.90;;;7.30;99.90;;;;;;5010539;28;20040;-83
2023/04/08 11:48:22;;;;;;;;;;;7.30;99.90;;;;;;5012439;28;20030;-84
2023/04/08 11:51:03;;;;;;;12.48;8.95;;;7.40;99.90;;;;;;5014279;28;19905;-85
2023/04/08 11:53:28;;;;;;;11.18;8.05;;;7.40;99.90;;;;;;5012801;28;20058;-84
2023/04/08 11:55:54;;;;;;;;;;;7.40;99.90;;;;;;5012426;28;20108;-85
2023/04/08 11:58:20;;;;;;;11.60;8.77;;;7.30;99.90;;;;;;5011531;28;20301;-84
2023/04/08 12:00:46;;;;;;;;;;;7.10;99.90;;;;;;5011080;28;20029;-84
2023/04/08 12:03:12;;;;;;;10.48;7.97;;;6.90;99.90;;;;;;5011119;28;19909;-84
2023/04/08 12:05:38;;;;;;;;;;;6.80;99.90;;;;;;5011191;28;20442;-83
2023/04/08 12:08:03;;;;;;;19.25;12.93;;;6.60;99.90;;;;;;5012174;28;20400;-84
2023/04/08 12:10:29;;;;;;;;;;;6.40;99.90;;;;;;5011493;28;20092;-84
2023/04/08 12:12:55;;;;;;;34.35;21.52;;;6.20;99.90;;;;;;5010741;28;20297;-84
2023/04/08 12:15:20;;;;;;;;;;;6.10;99.90;;;;;;5012409;28;20069;-82
2023/04/08 12:17:46;;;;;;;46.35;25.80;;;6.00;99.90;;;;;;5010660;28;20332;-83
2023/04/08 12:20:12;;;;;;;;;;;5.90;99.90;;;;;;5011212;28;20030;-81
2023/04/08 12:22:38;;;;;;;48.90;25.25;;;5.90;99.90;;;;;;5010432;28;19905;-84
2023/04/08 12:25:05;;;;;;;36.85;22.83;;;5.80;99.90;;;;;;5011143;28;20064;-83
2023/04/08 12:27:34;;;;;;;38.13;24.80;;;5.80;99.90;;;;;;5010705;28;20391;-84
2023/04/08 12:30:01;;;;;;;33.42;21.08;;;5.80;99.90;;;;;;5010195;28;20072;-83
2023/04/08 12:32:26;;;;;;;26.25;15.57;;;5.90;99.90;;;;;;5009323;28;20022;-84
2023/04/08 12:34:52;;;;;;;;;;;5.90;99.90;;;;;;5011453;28;20033;-84
2023/04/08 12:37:19;;;;;;;20.05;14.77;;;6.00;99.90;;;;;;5011815;28;20362;-84
2023/04/08 12:39:45;;;;;;;26.63;16.25;;;6.10;99.90;;;;;;5009915;28;20041;-84
2023/04/08 12:42:10;;;;;;;;;;;6.00;99.90;;;;;;5011154;28;20022;-84
2023/04/08 12:44:36;;;;;;;19.45;12.90;;;6.00;99.90;;;;;;5009504;28;20337;-84
2023/04/08 12:47:01;;;;;;;;;;;6.10;99.90;;;;;;5011926;28;20391;-84
2023/04/08 12:49:27;;;;;;;23.33;15.60;;;6.10;99.90;;;;;;5014160;28;20285;-83
2023/04/08 12:51:53;;;;;;;;;;;6.20;99.90;;;;;;5014262;28;20471;-84
2023/04/08 12:54:20;;;;;;;11.88;9.25;;;6.30;99.90;;;;;;5014461;28;19905;-85
2023/04/08 12:56:47;;;;;;;139.55;71.72;;;6.50;99.90;;;;;;5013811;28;20410;-83
2023/04/08 12:59:13;;;;;;;56.55;38.92;;;6.50;99.90;;;;;;5014219;28;20041;-82
2023/04/08 13:01:39;;;;;;;;;;;6.60;99.90;;;;;;5015324;28;20056;-83
2023/04/08 13:04:05;;;;;;;12.88;9.63;;;6.70;99.90;;;;;;5013647;28;20293;-83
2023/04/08 13:06:30;;;;;;;;;;;6.70;99.90;;;;;;5012171;28;20509;-83
2023/04/08 13:08:56;;;;;;;13.70;9.18;;;6.70;99.90;;;;;;5013076;28;19964;-83
2023/04/08 13:11:22;;;;;;;;;;;6.80;99.90;;;;;;5014194;28;20021;-83